Airfield :







YOU CAN JOIN US ON...

 
LOGIN :

Register | Disclaimer

   EN    FR    IT 

 









Legend :    VFR   Marginal VFR   IFR   Intensive IFR   Very Intensive IFR
Visi :
Ceiling :
>= 8 km
>= 3000ft
5 to 8 km
1000 to 3000 ft
1500m to 5 km
500 to 1000 ft
800 to 1500m
200 to 500 ft
< 800m
< 200 ft
Symbols :   Thunderstorms  Fog  Heavy snow  Heavy precipitations  Wind > 20 kt






- Airport Elevation : 83 ft


KBHB - Hancock County-Bar Harbor

CURRENT METAR :
  • 110556Z AUTO VRB04KT 6SM -SN BR SCT008 OVC014 01/01 A2998 RMK AO2 RAE43UPB43E46SNB46 SLP154 P0007 60028 T00110006 10106 20011 51022 FZRANO

EXPIRED METARs :
  • 110541Z AUTO 31007KT 8SM -RA FEW008 OVC014 02/01 A2997 RMK AO2 P0005 FZRANO
  • 110456Z AUTO 31007G14KT 10SM -RA OVC020 03/01 A2995 RMK AO2 SLP143 P0003 T00280011
  • 110356Z AUTO 28003KT 10SM -RA FEW037 BKN055 OVC065 05/03 A2991 RMK AO2 RAE15B50 SLP132 P0000 T00500033 401220050

TAF KBHB
Valid from the 11 at 06:00 until the 12 at 06:00 UTC


110531Z 1106/1206 31007KT 5SM -RASN OVC018
FM110900 VRB04KT P6SM SCT080



MET'MAP, your aeronautical weather chart ! - Copyright ORBIFLY December 2007 - Disclaimer

ORBIFLY MET'MAP TEAM :

Programming & Development : Alexandra Zaïnal
Concept & original design : Baudouin d'Aumeries
Assistance for programming : Marc-Olivier Méhu
Technical & hardware support : Manuel Goepfert

Contact : metmap@orbifly.com




SOURCES & CREDITS :

   NOAA